sensor_id;sensor_type;location;lat;lon;timestamp;P1;durP1;ratioP1;P2;durP2;ratioP2
49840;SDS011;35738;49.890;5.930;2024-02-26T00:00:27;0.93;;;0.93;;
49840;SDS011;35738;49.890;5.930;2024-02-26T00:02:55;1.00;;;1.00;;
49840;SDS011;35738;49.890;5.930;2024-02-26T00:05:21;1.85;;;1.20;;
49840;SDS011;35738;49.890;5.930;2024-02-26T00:07:48;2.17;;;1.10;;
49840;SDS011;35738;49.890;5.930;2024-02-26T00:10:15;1.25;;;1.10;;
49840;SDS011;35738;49.890;5.930;2024-02-26T00:12:41;1.27;;;1.00;;
49840;SDS011;35738;49.890;5.930;2024-02-26T00:15:08;1.08;;;1.08;;
49840;SDS011;35738;49.890;5.930;2024-02-26T00:17:36;0.82;;;0.82;;
49840;SDS011;35738;49.890;5.930;2024-02-26T00:20:04;1.10;;;1.00;;
49840;SDS011;35738;49.890;5.930;2024-02-26T00:22:35;1.00;;;1.00;;
49840;SDS011;35738;49.890;5.930;2024-02-26T00:25:01;1.02;;;1.00;;
49840;SDS011;35738;49.890;5.930;2024-02-26T00:27:28;1.13;;;1.00;;
49840;SDS011;35738;49.890;5.930;2024-02-26T00:29:54;1.38;;;1.15;;
49840;SDS011;35738;49.890;5.930;2024-02-26T00:32:21;1.98;;;1.10;;
49840;SDS011;35738;49.890;5.930;2024-02-26T00:34:47;1.23;;;1.13;;
49840;SDS011;35738;49.890;5.930;2024-02-26T00:37:14;1.20;;;1.10;;
49840;SDS011;35738;49.890;5.930;2024-02-26T00:39:41;1.77;;;1.20;;
49840;SDS011;35738;49.890;5.930;2024-02-26T00:42:08;1.23;;;1.13;;
49840;SDS011;35738;49.890;5.930;2024-02-26T00:44:34;1.75;;;1.27;;
49840;SDS011;35738;49.890;5.930;2024-02-26T00:47:01;1.40;;;1.30;;
49840;SDS011;35738;49.890;5.930;2024-02-26T00:49:28;1.75;;;1.02;;
49840;SDS011;35738;49.890;5.930;2024-02-26T00:51:55;2.10;;;1.10;;
49840;SDS011;35738;49.890;5.930;2024-02-26T00:54:22;1.73;;;1.25;;
49840;SDS011;35738;49.890;5.930;2024-02-26T00:56:49;1.30;;;1.20;;
49840;SDS011;35738;49.890;5.930;2024-02-26T00:59:15;1.30;;;1.20;;
49840;SDS011;35738;49.890;5.930;2024-02-26T01:01:42;1.17;;;1.17;;
49840;SDS011;35738;49.890;5.930;2024-02-26T01:04:08;1.60;;;1.40;;
49840;SDS011;35738;49.890;5.930;2024-02-26T01:06:35;1.13;;;1.13;;
49840;SDS011;35738;49.890;5.930;2024-02-26T01:09:02;1.57;;;1.13;;
49840;SDS011;35738;49.890;5.930;2024-02-26T01:11:29;1.30;;;1.30;;
49840;SDS011;35738;49.890;5.930;2024-02-26T01:13:56;1.40;;;1.30;;
49840;SDS011;35738;49.890;5.930;2024-02-26T01:16:23;1.20;;;1.10;;
49840;SDS011;35738;49.890;5.930;2024-02-26T01:18:50;1.20;;;1.20;;
49840;SDS011;35738;49.890;5.930;2024-02-26T01:21:17;1.70;;;1.60;;
49840;SDS011;35738;49.890;5.930;2024-02-26T01:23:44;1.60;;;1.50;;
49840;SDS011;35738;49.890;5.930;2024-02-26T01:26:10;1.50;;;1.40;;
49840;SDS011;35738;49.890;5.930;2024-02-26T01:28:37;1.30;;;1.30;;
49840;SDS011;35738;49.890;5.930;2024-02-26T01:31:03;1.60;;;1.50;;
49840;SDS011;35738;49.890;5.930;2024-02-26T01:33:33;3.80;;;1.48;;
49840;SDS011;35738;49.890;5.930;2024-02-26T01:36:00;1.47;;;1.37;;
49840;SDS011;35738;49.890;5.930;2024-02-26T01:38:27;2.53;;;1.90;;
49840;SDS011;35738;49.890;5.930;2024-02-26T01:40:54;1.93;;;1.73;;
49840;SDS011;35738;49.890;5.930;2024-02-26T01:43:20;2.08;;;1.67;;
49840;SDS011;35738;49.890;5.930;2024-02-26T01:45:47;1.90;;;1.80;;
49840;SDS011;35738;49.890;5.930;2024-02-26T01:48:14;2.00;;;1.90;;
49840;SDS011;35738;49.890;5.930;2024-02-26T01:50:41;2.00;;;1.90;;
49840;SDS011;35738;49.890;5.930;2024-02-26T01:53:07;2.13;;;1.80;;
49840;SDS011;35738;49.890;5.930;2024-02-26T01:55:35;2.33;;;2.00;;
49840;SDS011;35738;49.890;5.930;2024-02-26T01:58:02;2.17;;;1.97;;
49840;SDS011;35738;49.890;5.930;2024-02-26T02:00:29;2.13;;;2.00;;
49840;SDS011;35738;49.890;5.930;2024-02-26T02:02:57;2.30;;;2.10;;
49840;SDS011;35738;49.890;5.930;2024-02-26T02:05:23;2.23;;;2.03;;
49840;SDS011;35738;49.890;5.930;2024-02-26T02:07:52;2.10;;;1.93;;
49840;SDS011;35738;49.890;5.930;2024-02-26T02:10:19;2.23;;;2.13;;
49840;SDS011;35738;49.890;5.930;2024-02-26T02:12:49;2.50;;;2.30;;
49840;SDS011;35738;49.890;5.930;2024-02-26T02:15:16;4.05;;;2.60;;
49840;SDS011;35738;49.890;5.930;2024-02-26T02:17:43;2.20;;;2.10;;
49840;SDS011;35738;49.890;5.930;2024-02-26T02:20:24;2.87;;;2.40;;
49840;SDS011;35738;49.890;5.930;2024-02-26T02:22:51;2.17;;;1.93;;
49840;SDS011;35738;49.890;5.930;2024-02-26T02:25:17;3.67;;;2.30;;
49840;SDS011;35738;49.890;5.930;2024-02-26T02:27:44;2.70;;;2.50;;
49840;SDS011;35738;49.890;5.930;2024-02-26T02:30:11;2.37;;;2.17;;
49840;SDS011;35738;49.890;5.930;2024-02-26T02:32:39;2.83;;;2.30;;
49840;SDS011;35738;49.890;5.930;2024-02-26T02:35:08;3.73;;;2.60;;
49840;SDS011;35738;49.890;5.930;2024-02-26T02:37:34;2.97;;;2.50;;
49840;SDS011;35738;49.890;5.930;2024-02-26T02:40:01;2.38;;;2.17;;
49840;SDS011;35738;49.890;5.930;2024-02-26T02:42:27;1.87;;;1.77;;
49840;SDS011;35738;49.890;5.930;2024-02-26T02:44:54;2.30;;;2.10;;
49840;SDS011;35738;49.890;5.930;2024-02-26T02:47:21;2.10;;;2.00;;
49840;SDS011;35738;49.890;5.930;2024-02-26T02:49:47;1.90;;;1.80;;
49840;SDS011;35738;49.890;5.930;2024-02-26T02:52:14;1.83;;;1.60;;
49840;SDS011;35738;49.890;5.930;2024-02-26T02:54:40;1.60;;;1.50;;
49840;SDS011;35738;49.890;5.930;2024-02-26T02:57:08;1.90;;;1.60;;
49840;SDS011;35738;49.890;5.930;2024-02-26T02:59:37;1.40;;;1.30;;
49840;SDS011;35738;49.890;5.930;2024-02-26T03:02:04;1.70;;;1.60;;
49840;SDS011;35738;49.890;5.930;2024-02-26T03:04:31;1.77;;;1.63;;
49840;SDS011;35738;49.890;5.930;2024-02-26T03:06:58;1.70;;;1.60;;
49840;SDS011;35738;49.890;5.930;2024-02-26T03:09:24;1.60;;;1.50;;
49840;SDS011;35738;49.890;5.930;2024-02-26T03:11:51;1.40;;;1.30;;
49840;SDS011;35738;49.890;5.930;2024-02-26T03:14:18;1.50;;;1.50;;
49840;SDS011;35738;49.890;5.930;2024-02-26T03:16:45;1.43;;;1.30;;
49840;SDS011;35738;49.890;5.930;2024-02-26T03:19:13;1.30;;;1.20;;
49840;SDS011;35738;49.890;5.930;2024-02-26T03:21:41;1.30;;;1.30;;
49840;SDS011;35738;49.890;5.930;2024-02-26T03:24:07;1.23;;;1.23;;
49840;SDS011;35738;49.890;5.930;2024-02-26T03:26:36;1.40;;;1.37;;
49840;SDS011;35738;49.890;5.930;2024-02-26T03:29:03;2.25;;;1.33;;
49840;SDS011;35738;49.890;5.930;2024-02-26T03:31:30;1.30;;;1.20;;
49840;SDS011;35738;49.890;5.930;2024-02-26T03:33:57;1.10;;;1.10;;
49840;SDS011;35738;49.890;5.930;2024-02-26T03:36:23;1.13;;;1.07;;
49840;SDS011;35738;49.890;5.930;2024-02-26T03:38:50;1.07;;;1.07;;
49840;SDS011;35738;49.890;5.930;2024-02-26T03:41:17;0.90;;;0.90;;
49840;SDS011;35738;49.890;5.930;2024-02-26T03:43:43;0.93;;;0.93;;
49840;SDS011;35738;49.890;5.930;2024-02-26T03:46:11;0.90;;;0.90;;
49840;SDS011;35738;49.890;5.930;2024-02-26T03:48:42;0.90;;;0.90;;
49840;SDS011;35738;49.890;5.930;2024-02-26T03:51:09;0.90;;;0.90;;
49840;SDS011;35738;49.890;5.930;2024-02-26T03:53:36;1.00;;;1.00;;
49840;SDS011;35738;49.890;5.930;2024-02-26T03:56:04;0.83;;;0.83;;
49840;SDS011;35738;49.890;5.930;2024-02-26T03:58:31;0.90;;;0.90;;
49840;SDS011;35738;49.890;5.930;2024-02-26T04:00:59;0.88;;;0.88;;
49840;SDS011;35738;49.890;5.930;2024-02-26T04:03:26;0.80;;;0.80;;
49840;SDS011;35738;49.890;5.930;2024-02-26T04:05:53;0.90;;;0.90;;
49840;SDS011;35738;49.890;5.930;2024-02-26T04:08:20;1.20;;;1.20;;
49840;SDS011;35738;49.890;5.930;2024-02-26T04:10:47;0.93;;;0.93;;
49840;SDS011;35738;49.890;5.930;2024-02-26T04:13:13;0.90;;;0.90;;
49840;SDS011;35738;49.890;5.930;2024-02-26T04:15:41;1.00;;;0.90;;
49840;SDS011;35738;49.890;5.930;2024-02-26T04:18:07;1.20;;;1.20;;
49840;SDS011;35738;49.890;5.930;2024-02-26T04:20:34;1.80;;;1.70;;
49840;SDS011;35738;49.890;5.930;2024-02-26T04:23:02;2.07;;;1.90;;
49840;SDS011;35738;49.890;5.930;2024-02-26T04:25:29;15.40;;;3.10;;
49840;SDS011;35738;49.890;5.930;2024-02-26T04:27:55;6.00;;;2.00;;
49840;SDS011;35738;49.890;5.930;2024-02-26T04:30:22;45.50;;;4.40;;
49840;SDS011;35738;49.890;5.930;2024-02-26T04:32:49;96.37;;;7.07;;
49840;SDS011;35738;49.890;5.930;2024-02-26T04:35:15;135.07;;;8.50;;
49840;SDS011;35738;49.890;5.930;2024-02-26T04:37:42;3.20;;;2.30;;
49840;SDS011;35738;49.890;5.930;2024-02-26T04:40:09;2.73;;;2.53;;
49840;SDS011;35738;49.890;5.930;2024-02-26T04:42:36;2.80;;;2.60;;
49840;SDS011;35738;49.890;5.930;2024-02-26T04:45:02;2.55;;;2.35;;
49840;SDS011;35738;49.890;5.930;2024-02-26T04:47:29;2.80;;;2.60;;
49840;SDS011;35738;49.890;5.930;2024-02-26T04:49:56;2.92;;;2.72;;
49840;SDS011;35738;49.890;5.930;2024-02-26T04:52:23;3.00;;;2.70;;
49840;SDS011;35738;49.890;5.930;2024-02-26T04:54:49;3.27;;;3.07;;
49840;SDS011;35738;49.890;5.930;2024-02-26T04:57:16;3.22;;;3.03;;
49840;SDS011;35738;49.890;5.930;2024-02-26T04:59:44;3.33;;;3.03;;
49840;SDS011;35738;49.890;5.930;2024-02-26T05:02:12;50.70;;;5.30;;
49840;SDS011;35738;49.890;5.930;2024-02-26T05:04:39;126.63;;;9.30;;
49840;SDS011;35738;49.890;5.930;2024-02-26T05:07:06;122.68;;;8.85;;
49840;SDS011;35738;49.890;5.930;2024-02-26T05:09:32;136.07;;;9.35;;
49840;SDS011;35738;49.890;5.930;2024-02-26T05:11:59;134.93;;;8.23;;
49840;SDS011;35738;49.890;5.930;2024-02-26T05:14:26;221.13;;;12.60;;
49840;SDS011;35738;49.890;5.930;2024-02-26T05:16:52;17.53;;;3.47;;
49840;SDS011;35738;49.890;5.930;2024-02-26T05:19:19;140.90;;;9.00;;
49840;SDS011;35738;49.890;5.930;2024-02-26T05:21:45;6.57;;;2.90;;
49840;SDS011;35738;49.890;5.930;2024-02-26T05:24:15;2.60;;;2.40;;
49840;SDS011;35738;49.890;5.930;2024-02-26T05:26:45;2.35;;;2.25;;
49840;SDS011;35738;49.890;5.930;2024-02-26T05:29:11;1.90;;;1.80;;
49840;SDS011;35738;49.890;5.930;2024-02-26T05:31:38;1.90;;;1.80;;
49840;SDS011;35738;49.890;5.930;2024-02-26T05:34:05;2.10;;;2.00;;
49840;SDS011;35738;49.890;5.930;2024-02-26T05:36:31;2.95;;;2.75;;
49840;SDS011;35738;49.890;5.930;2024-02-26T05:39:00;3.23;;;3.03;;
49840;SDS011;35738;49.890;5.930;2024-02-26T05:41:26;3.43;;;3.13;;
49840;SDS011;35738;49.890;5.930;2024-02-26T05:43:53;2.92;;;2.67;;
49840;SDS011;35738;49.890;5.930;2024-02-26T05:46:20;3.27;;;3.03;;
49840;SDS011;35738;49.890;5.930;2024-02-26T05:48:51;3.05;;;2.83;;
49840;SDS011;35738;49.890;5.930;2024-02-26T05:51:19;2.80;;;2.60;;
49840;SDS011;35738;49.890;5.930;2024-02-26T05:53:46;3.50;;;3.20;;
49840;SDS011;35738;49.890;5.930;2024-02-26T05:56:21;3.37;;;3.07;;
49840;SDS011;35738;49.890;5.930;2024-02-26T05:58:48;3.35;;;3.05;;
49840;SDS011;35738;49.890;5.930;2024-02-26T06:01:17;3.63;;;3.30;;
49840;SDS011;35738;49.890;5.930;2024-02-26T06:03:44;3.03;;;2.83;;
49840;SDS011;35738;49.890;5.930;2024-02-26T06:06:12;3.40;;;2.85;;
49840;SDS011;35738;49.890;5.930;2024-02-26T06:08:41;3.63;;;3.33;;
49840;SDS011;35738;49.890;5.930;2024-02-26T06:11:08;3.80;;;3.40;;
49840;SDS011;35738;49.890;5.930;2024-02-26T06:13:35;4.53;;;4.05;;
49840;SDS011;35738;49.890;5.930;2024-02-26T06:16:02;4.17;;;3.77;;
49840;SDS011;35738;49.890;5.930;2024-02-26T06:18:28;5.10;;;3.92;;
49840;SDS011;35738;49.890;5.930;2024-02-26T06:20:55;6.35;;;4.30;;
49840;SDS011;35738;49.890;5.930;2024-02-26T06:23:22;3.67;;;3.38;;
49840;SDS011;35738;49.890;5.930;2024-02-26T06:25:49;3.57;;;2.57;;
49840;SDS011;35738;49.890;5.930;2024-02-26T06:28:16;3.42;;;3.03;;
49840;SDS011;35738;49.890;5.930;2024-02-26T06:30:43;3.05;;;2.85;;
49840;SDS011;35738;49.890;5.930;2024-02-26T06:33:09;3.17;;;2.95;;
49840;SDS011;35738;49.890;5.930;2024-02-26T06:35:37;3.15;;;2.88;;
49840;SDS011;35738;49.890;5.930;2024-02-26T06:38:04;8.02;;;4.40;;
49840;SDS011;35738;49.890;5.930;2024-02-26T06:40:30;3.40;;;3.10;;
49840;SDS011;35738;49.890;5.930;2024-02-26T06:42:57;4.50;;;3.50;;
49840;SDS011;35738;49.890;5.930;2024-02-26T06:45:23;3.53;;;3.22;;
49840;SDS011;35738;49.890;5.930;2024-02-26T06:47:50;3.95;;;3.53;;
49840;SDS011;35738;49.890;5.930;2024-02-26T06:50:17;4.55;;;4.03;;
49840;SDS011;35738;49.890;5.930;2024-02-26T06:52:44;5.95;;;4.90;;
49840;SDS011;35738;49.890;5.930;2024-02-26T06:55:12;5.60;;;4.60;;
49840;SDS011;35738;49.890;5.930;2024-02-26T06:57:39;4.75;;;4.15;;
49840;SDS011;35738;49.890;5.930;2024-02-26T07:00:06;3.95;;;3.58;;
49840;SDS011;35738;49.890;5.930;2024-02-26T07:02:33;4.30;;;3.67;;
49840;SDS011;35738;49.890;5.930;2024-02-26T07:05:02;3.50;;;3.20;;
49840;SDS011;35738;49.890;5.930;2024-02-26T07:07:29;4.65;;;3.33;;
49840;SDS011;35738;49.890;5.930;2024-02-26T07:09:56;3.95;;;3.50;;
49840;SDS011;35738;49.890;5.930;2024-02-26T07:12:22;4.43;;;3.53;;
49840;SDS011;35738;49.890;5.930;2024-02-26T07:14:49;4.00;;;3.13;;
49840;SDS011;35738;49.890;5.930;2024-02-26T07:17:16;3.63;;;3.17;;
49840;SDS011;35738;49.890;5.930;2024-02-26T07:19:43;2.92;;;2.72;;
49840;SDS011;35738;49.890;5.930;2024-02-26T07:22:10;2.67;;;2.47;;
49840;SDS011;35738;49.890;5.930;2024-02-26T07:24:37;2.60;;;2.40;;
49840;SDS011;35738;49.890;5.930;2024-02-26T07:27:03;2.00;;;1.90;;
49840;SDS011;35738;49.890;5.930;2024-02-26T07:29:30;2.42;;;2.28;;
49840;SDS011;35738;49.890;5.930;2024-02-26T07:31:57;1.98;;;1.85;;
49840;SDS011;35738;49.890;5.930;2024-02-26T07:34:24;2.35;;;2.15;;
49840;SDS011;35738;49.890;5.930;2024-02-26T07:36:55;3.80;;;2.50;;
49840;SDS011;35738;49.890;5.930;2024-02-26T07:39:22;2.80;;;2.60;;
49840;SDS011;35738;49.890;5.930;2024-02-26T07:41:49;2.20;;;2.10;;
49840;SDS011;35738;49.890;5.930;2024-02-26T07:44:18;2.75;;;2.25;;
49840;SDS011;35738;49.890;5.930;2024-02-26T07:46:46;2.50;;;2.30;;
49840;SDS011;35738;49.890;5.930;2024-02-26T07:49:12;2.28;;;2.10;;
49840;SDS011;35738;49.890;5.930;2024-02-26T07:51:39;3.72;;;2.60;;
49840;SDS011;35738;49.890;5.930;2024-02-26T07:54:06;3.45;;;2.50;;
49840;SDS011;35738;49.890;5.930;2024-02-26T07:56:32;2.85;;;2.55;;
49840;SDS011;35738;49.890;5.930;2024-02-26T07:58:59;2.80;;;2.60;;
49840;SDS011;35738;49.890;5.930;2024-02-26T08:01:26;2.60;;;2.40;;
49840;SDS011;35738;49.890;5.930;2024-02-26T08:03:55;2.78;;;2.58;;
49840;SDS011;35738;49.890;5.930;2024-02-26T08:06:23;2.45;;;2.30;;
49840;SDS011;35738;49.890;5.930;2024-02-26T08:08:50;2.40;;;2.30;;
49840;SDS011;35738;49.890;5.930;2024-02-26T08:11:17;2.03;;;1.92;;
49840;SDS011;35738;49.890;5.930;2024-02-26T08:13:44;2.17;;;2.08;;
49840;SDS011;35738;49.890;5.930;2024-02-26T08:16:11;1.90;;;1.80;;
49840;SDS011;35738;49.890;5.930;2024-02-26T08:18:38;1.80;;;1.70;;
49840;SDS011;35738;49.890;5.930;2024-02-26T08:21:05;2.70;;;1.98;;
49840;SDS011;35738;49.890;5.930;2024-02-26T08:23:31;4.93;;;2.58;;
49840;SDS011;35738;49.890;5.930;2024-02-26T08:25:58;33.80;;;4.55;;
49840;SDS011;35738;49.890;5.930;2024-02-26T08:28:24;4.53;;;2.75;;
49840;SDS011;35738;49.890;5.930;2024-02-26T08:30:51;16.13;;;3.35;;
49840;SDS011;35738;49.890;5.930;2024-02-26T08:33:17;6.78;;;3.15;;
49840;SDS011;35738;49.890;5.930;2024-02-26T08:35:44;4.45;;;2.65;;
49840;SDS011;35738;49.890;5.930;2024-02-26T08:38:11;2.35;;;2.25;;
49840;SDS011;35738;49.890;5.930;2024-02-26T08:40:38;12.80;;;3.15;;
49840;SDS011;35738;49.890;5.930;2024-02-26T08:43:04;3.03;;;2.33;;
49840;SDS011;35738;49.890;5.930;2024-02-26T08:45:31;3.10;;;2.43;;
49840;SDS011;35738;49.890;5.930;2024-02-26T08:47:58;3.05;;;2.63;;
49840;SDS011;35738;49.890;5.930;2024-02-26T08:50:25;38.78;;;4.95;;
49840;SDS011;35738;49.890;5.930;2024-02-26T08:52:53;73.60;;;6.07;;
49840;SDS011;35738;49.890;5.930;2024-02-26T08:55:19;113.68;;;9.13;;
49840;SDS011;35738;49.890;5.930;2024-02-26T08:57:46;162.27;;;10.30;;
49840;SDS011;35738;49.890;5.930;2024-02-26T09:00:13;205.48;;;12.55;;
49840;SDS011;35738;49.890;5.930;2024-02-26T09:02:41;296.52;;;15.60;;
49840;SDS011;35738;49.890;5.930;2024-02-26T09:05:11;415.98;;;18.98;;
49840;SDS011;35738;49.890;5.930;2024-02-26T09:07:37;390.08;;;20.55;;
49840;SDS011;35738;49.890;5.930;2024-02-26T09:10:05;361.05;;;16.58;;
49840;SDS011;35738;49.890;5.930;2024-02-26T09:12:34;514.42;;;21.77;;
49840;SDS011;35738;49.890;5.930;2024-02-26T09:15:01;472.05;;;19.70;;
49840;SDS011;35738;49.890;5.930;2024-02-26T09:17:28;529.70;;;20.80;;
49840;SDS011;35738;49.890;5.930;2024-02-26T09:19:54;433.17;;;18.75;;
49840;SDS011;35738;49.890;5.930;2024-02-26T09:22:21;421.63;;;17.08;;
49840;SDS011;35738;49.890;5.930;2024-02-26T09:24:47;467.42;;;20.55;;
49840;SDS011;35738;49.890;5.930;2024-02-26T09:27:16;494.95;;;19.10;;
49840;SDS011;35738;49.890;5.930;2024-02-26T09:29:43;330.10;;;14.20;;
49840;SDS011;35738;49.890;5.930;2024-02-26T09:32:10;455.95;;;18.75;;
49840;SDS011;35738;49.890;5.930;2024-02-26T09:34:36;449.83;;;18.58;;
49840;SDS011;35738;49.890;5.930;2024-02-26T09:37:03;345.17;;;16.70;;
49840;SDS011;35738;49.890;5.930;2024-02-26T09:39:41;472.77;;;21.83;;
49840;SDS011;35738;49.890;5.930;2024-02-26T09:42:07;530.35;;;23.38;;
49840;SDS011;35738;49.890;5.930;2024-02-26T09:44:38;465.55;;;20.58;;
49840;SDS011;35738;49.890;5.930;2024-02-26T09:47:09;522.80;;;23.13;;
49840;SDS011;35738;49.890;5.930;2024-02-26T09:49:37;546.30;;;24.30;;
49840;SDS011;35738;49.890;5.930;2024-02-26T09:52:05;576.85;;;25.52;;
49840;SDS011;35738;49.890;5.930;2024-02-26T09:54:35;614.20;;;25.42;;
49840;SDS011;35738;49.890;5.930;2024-02-26T09:57:02;616.95;;;26.55;;
49840;SDS011;35738;49.890;5.930;2024-02-26T09:59:36;654.85;;;27.77;;
49840;SDS011;35738;49.890;5.930;2024-02-26T10:02:12;527.95;;;24.13;;
49840;SDS011;35738;49.890;5.930;2024-02-26T10:04:40;440.17;;;22.15;;
49840;SDS011;35738;49.890;5.930;2024-02-26T10:07:11;705.90;;;32.58;;
49840;SDS011;35738;49.890;5.930;2024-02-26T10:09:39;572.92;;;25.52;;
49840;SDS011;35738;49.890;5.930;2024-02-26T10:12:08;602.58;;;27.27;;
49840;SDS011;35738;49.890;5.930;2024-02-26T10:14:37;535.13;;;25.00;;
49840;SDS011;35738;49.890;5.930;2024-02-26T10:17:05;614.30;;;28.13;;
49840;SDS011;35738;49.890;5.930;2024-02-26T10:19:35;614.83;;;28.35;;
49840;SDS011;35738;49.890;5.930;2024-02-26T10:22:04;594.60;;;28.33;;
49840;SDS011;35738;49.890;5.930;2024-02-26T10:24:31;625.72;;;30.05;;
49840;SDS011;35738;49.890;5.930;2024-02-26T10:26:58;572.50;;;27.58;;
49840;SDS011;35738;49.890;5.930;2024-02-26T10:29:25;601.83;;;30.80;;
49840;SDS011;35738;49.890;5.930;2024-02-26T10:31:52;556.63;;;28.05;;
49840;SDS011;35738;49.890;5.930;2024-02-26T10:34:19;719.70;;;34.28;;
49840;SDS011;35738;49.890;5.930;2024-02-26T10:36:46;466.15;;;25.08;;
49840;SDS011;35738;49.890;5.930;2024-02-26T10:39:19;570.10;;;30.33;;
49840;SDS011;35738;49.890;5.930;2024-02-26T10:41:48;401.45;;;25.02;;
49840;SDS011;35738;49.890;5.930;2024-02-26T10:44:15;645.97;;;33.70;;
49840;SDS011;35738;49.890;5.930;2024-02-26T10:46:45;730.35;;;34.83;;
49840;SDS011;35738;49.890;5.930;2024-02-26T10:49:14;617.53;;;32.75;;
49840;SDS011;35738;49.890;5.930;2024-02-26T10:51:49;620.13;;;34.03;;
49840;SDS011;35738;49.890;5.930;2024-02-26T10:54:20;686.85;;;38.35;;
49840;SDS011;35738;49.890;5.930;2024-02-26T10:56:50;607.33;;;34.13;;
49840;SDS011;35738;49.890;5.930;2024-02-26T10:59:17;667.72;;;36.70;;
49840;SDS011;35738;49.890;5.930;2024-02-26T11:01:48;539.50;;;31.67;;
49840;SDS011;35738;49.890;5.930;2024-02-26T11:04:16;629.97;;;35.25;;
49840;SDS011;35738;49.890;5.930;2024-02-26T11:06:44;732.33;;;40.33;;
49840;SDS011;35738;49.890;5.930;2024-02-26T11:09:13;674.63;;;34.58;;
49840;SDS011;35738;49.890;5.930;2024-02-26T11:11:42;579.47;;;32.95;;
49840;SDS011;35738;49.890;5.930;2024-02-26T11:14:10;86.30;;;14.88;;
49840;SDS011;35738;49.890;5.930;2024-02-26T11:16:39;152.77;;;17.75;;
49840;SDS011;35738;49.890;5.930;2024-02-26T11:19:08;43.13;;;13.18;;
49840;SDS011;35738;49.890;5.930;2024-02-26T11:21:36;25.67;;;12.60;;
49840;SDS011;35738;49.890;5.930;2024-02-26T11:24:11;181.10;;;19.83;;
49840;SDS011;35738;49.890;5.930;2024-02-26T11:26:43;262.42;;;23.35;;
49840;SDS011;35738;49.890;5.930;2024-02-26T11:29:17;629.78;;;36.20;;
49840;SDS011;35738;49.890;5.930;2024-02-26T11:31:47;754.80;;;37.42;;
49840;SDS011;35738;49.890;5.930;2024-02-26T11:34:14;736.53;;;37.65;;
49840;SDS011;35738;49.890;5.930;2024-02-26T11:36:41;570.10;;;32.35;;
49840;SDS011;35738;49.890;5.930;2024-02-26T11:39:08;552.70;;;33.33;;
49840;SDS011;35738;49.890;5.930;2024-02-26T11:41:38;544.80;;;32.63;;
49840;SDS011;35738;49.890;5.930;2024-02-26T11:44:05;481.08;;;30.92;;
49840;SDS011;35738;49.890;5.930;2024-02-26T11:46:38;77.00;;;14.23;;
49840;SDS011;35738;49.890;5.930;2024-02-26T11:49:52;336.25;;;25.73;;
49840;SDS011;35738;49.890;5.930;2024-02-26T11:51:55;452.33;;;29.55;;
49840;SDS011;35738;49.890;5.930;2024-02-26T11:59:55;107.68;;;15.95;;
49840;SDS011;35738;49.890;5.930;2024-02-26T12:02:44;142.65;;;17.05;;
49840;SDS011;35738;49.890;5.930;2024-02-26T12:05:15;122.97;;;16.30;;
49840;SDS011;35738;49.890;5.930;2024-02-26T12:07:44;198.70;;;20.15;;
49840;SDS011;35738;49.890;5.930;2024-02-26T12:12:55;58.35;;;13.43;;
49840;SDS011;35738;49.890;5.930;2024-02-26T12:15:33;15.45;;;11.57;;
49840;SDS011;35738;49.890;5.930;2024-02-26T12:18:03;13.65;;;9.45;;
49840;SDS011;35738;49.890;5.930;2024-02-26T12:20:31;14.13;;;9.70;;
49840;SDS011;35738;49.890;5.930;2024-02-26T12:22:58;14.32;;;9.40;;
49840;SDS011;35738;49.890;5.930;2024-02-26T12:25:25;13.60;;;9.55;;
49840;SDS011;35738;49.890;5.930;2024-02-26T12:27:53;13.32;;;9.52;;
49840;SDS011;35738;49.890;5.930;2024-02-26T12:30:20;17.45;;;9.20;;
49840;SDS011;35738;49.890;5.930;2024-02-26T12:32:49;12.40;;;8.52;;
49840;SDS011;35738;49.890;5.930;2024-02-26T12:35:16;12.68;;;7.60;;
49840;SDS011;35738;49.890;5.930;2024-02-26T12:37:43;9.15;;;6.75;;
49840;SDS011;35738;49.890;5.930;2024-02-26T12:40:11;8.15;;;6.25;;
49840;SDS011;35738;49.890;5.930;2024-02-26T12:42:39;7.43;;;6.05;;
49840;SDS011;35738;49.890;5.930;2024-02-26T12:45:06;8.00;;;6.15;;
49840;SDS011;35738;49.890;5.930;2024-02-26T12:47:38;7.85;;;5.72;;
49840;SDS011;35738;49.890;5.930;2024-02-26T12:50:06;10.20;;;6.25;;
49840;SDS011;35738;49.890;5.930;2024-02-26T12:52:36;10.35;;;6.75;;
49840;SDS011;35738;49.890;5.930;2024-02-26T12:55:10;7.60;;;6.15;;
49840;SDS011;35738;49.890;5.930;2024-02-26T12:57:39;7.97;;;6.25;;
49840;SDS011;35738;49.890;5.930;2024-02-26T13:00:10;11.05;;;8.30;;
49840;SDS011;35738;49.890;5.930;2024-02-26T13:02:48;11.55;;;8.32;;
49840;SDS011;35738;49.890;5.930;2024-02-26T13:05:17;11.73;;;8.07;;
49840;SDS011;35738;49.890;5.930;2024-02-26T13:07:45;10.02;;;7.93;;
49840;SDS011;35738;49.890;5.930;2024-02-26T13:10:16;8.77;;;7.50;;
49840;SDS011;35738;49.890;5.930;2024-02-26T13:12:44;11.60;;;7.15;;
49840;SDS011;35738;49.890;5.930;2024-02-26T13:15:21;8.98;;;7.90;;
49840;SDS011;35738;49.890;5.930;2024-02-26T13:17:49;9.77;;;7.68;;
49840;SDS011;35738;49.890;5.930;2024-02-26T13:20:27;12.00;;;7.25;;
49840;SDS011;35738;49.890;5.930;2024-02-26T13:23:02;7.82;;;6.30;;
49840;SDS011;35738;49.890;5.930;2024-02-26T13:25:29;8.27;;;6.53;;
49840;SDS011;35738;49.890;5.930;2024-02-26T13:28:09;8.63;;;6.53;;
49840;SDS011;35738;49.890;5.930;2024-02-26T13:30:40;7.65;;;6.47;;
49840;SDS011;35738;49.890;5.930;2024-02-26T13:33:07;7.20;;;6.45;;
49840;SDS011;35738;49.890;5.930;2024-02-26T13:35:38;10.20;;;6.13;;
49840;SDS011;35738;49.890;5.930;2024-02-26T13:38:05;7.00;;;6.30;;
49840;SDS011;35738;49.890;5.930;2024-02-26T13:40:32;9.52;;;5.93;;
49840;SDS011;35738;49.890;5.930;2024-02-26T13:43:00;7.78;;;6.25;;
49840;SDS011;35738;49.890;5.930;2024-02-26T13:45:27;8.20;;;6.25;;
49840;SDS011;35738;49.890;5.930;2024-02-26T13:48:19;9.80;;;5.70;;
49840;SDS011;35738;49.890;5.930;2024-02-26T13:50:44;8.35;;;6.30;;
49840;SDS011;35738;49.890;5.930;2024-02-26T13:53:12;6.45;;;5.85;;
49840;SDS011;35738;49.890;5.930;2024-02-26T13:55:40;6.45;;;5.85;;
49840;SDS011;35738;49.890;5.930;2024-02-26T13:58:11;6.18;;;5.57;;
49840;SDS011;35738;49.890;5.930;2024-02-26T14:00:40;7.90;;;5.38;;
49840;SDS011;35738;49.890;5.930;2024-02-26T14:03:08;9.07;;;5.32;;
49840;SDS011;35738;49.890;5.930;2024-02-26T14:05:35;8.32;;;5.32;;
49840;SDS011;35738;49.890;5.930;2024-02-26T14:08:02;8.07;;;5.00;;
49840;SDS011;35738;49.890;5.930;2024-02-26T14:10:29;6.90;;;5.07;;
49840;SDS011;35738;49.890;5.930;2024-02-26T14:12:57;5.85;;;5.00;;
49840;SDS011;35738;49.890;5.930;2024-02-26T14:15:24;6.38;;;4.88;;
49840;SDS011;35738;49.890;5.930;2024-02-26T14:17:52;4.90;;;4.50;;
49840;SDS011;35738;49.890;5.930;2024-02-26T14:20:23;5.50;;;4.50;;
49840;SDS011;35738;49.890;5.930;2024-02-26T14:22:50;5.00;;;4.50;;
49840;SDS011;35738;49.890;5.930;2024-02-26T14:25:20;5.28;;;4.78;;
49840;SDS011;35738;49.890;5.930;2024-02-26T14:27:47;5.30;;;4.45;;
49840;SDS011;35738;49.890;5.930;2024-02-26T14:30:14;7.50;;;4.70;;
49840;SDS011;35738;49.890;5.930;2024-02-26T14:32:41;4.57;;;4.18;;
49840;SDS011;35738;49.890;5.930;2024-02-26T14:35:08;4.78;;;4.20;;
49840;SDS011;35738;49.890;5.930;2024-02-26T14:37:42;6.28;;;4.60;;
49840;SDS011;35738;49.890;5.930;2024-02-26T14:40:13;5.13;;;4.45;;
49840;SDS011;35738;49.890;5.930;2024-02-26T14:42:40;4.75;;;4.22;;
49840;SDS011;35738;49.890;5.930;2024-02-26T14:45:07;6.53;;;4.10;;
49840;SDS011;35738;49.890;5.930;2024-02-26T14:47:36;4.93;;;4.20;;
49840;SDS011;35738;49.890;5.930;2024-02-26T14:50:02;4.47;;;3.67;;